sensor_id;sensor_type;location;lat;lon;timestamp;temperature;humidity
12922;DHT22;6528;48.086;16.282;2024-01-30T00:00:33;24.20;1.00
12922;DHT22;6528;48.086;16.282;2024-01-30T00:03:01;24.20;1.00
12922;DHT22;6528;48.086;16.282;2024-01-30T00:05:28;24.20;1.00
12922;DHT22;6528;48.086;16.282;2024-01-30T00:07:55;24.30;1.00
12922;DHT22;6528;48.086;16.282;2024-01-30T00:10:23;24.20;1.00
12922;DHT22;6528;48.086;16.282;2024-01-30T00:12:50;24.30;1.00
12922;DHT22;6528;48.086;16.282;2024-01-30T00:15:18;24.30;1.00
12922;DHT22;6528;48.086;16.282;2024-01-30T00:17:45;24.30;1.00
12922;DHT22;6528;48.086;16.282;2024-01-30T00:20:13;24.30;1.00
12922;DHT22;6528;48.086;16.282;2024-01-30T00:22:40;24.30;1.00
12922;DHT22;6528;48.086;16.282;2024-01-30T00:25:08;24.30;1.00
12922;DHT22;6528;48.086;16.282;2024-01-30T00:27:35;24.30;1.00
12922;DHT22;6528;48.086;16.282;2024-01-30T00:30:03;24.30;1.00
12922;DHT22;6528;48.086;16.282;2024-01-30T00:32:31;24.30;1.00
12922;DHT22;6528;48.086;16.282;2024-01-30T00:34:59;24.30;1.00
12922;DHT22;6528;48.086;16.282;2024-01-30T00:37:27;24.30;1.00
12922;DHT22;6528;48.086;16.282;2024-01-30T00:39:54;24.30;1.00
12922;DHT22;6528;48.086;16.282;2024-01-30T00:42:21;24.30;1.00
12922;DHT22;6528;48.086;16.282;2024-01-30T00:44:50;24.30;1.00
12922;DHT22;6528;48.086;16.282;2024-01-30T00:47:18;24.30;1.00
12922;DHT22;6528;48.086;16.282;2024-01-30T00:49:45;24.30;1.00
12922;DHT22;6528;48.086;16.282;2024-01-30T00:52:13;24.40;1.00
12922;DHT22;6528;48.086;16.282;2024-01-30T00:54:40;24.40;1.00
12922;DHT22;6528;48.086;16.282;2024-01-30T00:57:07;24.40;1.00
12922;DHT22;6528;48.086;16.282;2024-01-30T00:59:35;24.40;1.00
12922;DHT22;6528;48.086;16.282;2024-01-30T01:02:03;24.40;1.00
12922;DHT22;6528;48.086;16.282;2024-01-30T01:04:31;24.40;1.00
12922;DHT22;6528;48.086;16.282;2024-01-30T01:06:58;24.40;1.00
12922;DHT22;6528;48.086;16.282;2024-01-30T01:09:25;24.40;1.00
12922;DHT22;6528;48.086;16.282;2024-01-30T01:11:53;24.40;1.00
12922;DHT22;6528;48.086;16.282;2024-01-30T01:14:21;24.40;1.00
12922;DHT22;6528;48.086;16.282;2024-01-30T01:16:48;24.40;1.00
12922;DHT22;6528;48.086;16.282;2024-01-30T01:19:15;24.40;1.00
12922;DHT22;6528;48.086;16.282;2024-01-30T01:21:42;24.40;1.00
12922;DHT22;6528;48.086;16.282;2024-01-30T01:24:10;24.40;1.00
12922;DHT22;6528;48.086;16.282;2024-01-30T01:26:38;24.40;1.00
12922;DHT22;6528;48.086;16.282;2024-01-30T01:29:06;24.40;1.00
12922;DHT22;6528;48.086;16.282;2024-01-30T01:31:39;24.40;1.00
12922;DHT22;6528;48.086;16.282;2024-01-30T01:34:11;24.40;1.00
12922;DHT22;6528;48.086;16.282;2024-01-30T01:36:39;24.40;1.00
12922;DHT22;6528;48.086;16.282;2024-01-30T01:39:06;24.40;1.00
12922;DHT22;6528;48.086;16.282;2024-01-30T01:41:35;24.40;1.00
12922;DHT22;6528;48.086;16.282;2024-01-30T01:44:02;24.40;1.00
12922;DHT22;6528;48.086;16.282;2024-01-30T01:46:32;24.50;1.00
12922;DHT22;6528;48.086;16.282;2024-01-30T01:49:01;24.50;1.00
12922;DHT22;6528;48.086;16.282;2024-01-30T01:51:31;24.40;1.00
12922;DHT22;6528;48.086;16.282;2024-01-30T01:54:00;24.50;1.00
12922;DHT22;6528;48.086;16.282;2024-01-30T01:56:29;24.40;1.00
12922;DHT22;6528;48.086;16.282;2024-01-30T01:59:00;24.40;1.00
12922;DHT22;6528;48.086;16.282;2024-01-30T02:01:32;24.50;1.00
12922;DHT22;6528;48.086;16.282;2024-01-30T02:04:00;24.40;1.00
12922;DHT22;6528;48.086;16.282;2024-01-30T02:06:28;24.50;1.00
12922;DHT22;6528;48.086;16.282;2024-01-30T02:08:55;24.50;1.00
12922;DHT22;6528;48.086;16.282;2024-01-30T02:11:23;24.50;1.00
12922;DHT22;6528;48.086;16.282;2024-01-30T02:13:50;24.50;1.00
12922;DHT22;6528;48.086;16.282;2024-01-30T02:16:18;24.50;1.00
12922;DHT22;6528;48.086;16.282;2024-01-30T02:18:45;24.50;1.00
12922;DHT22;6528;48.086;16.282;2024-01-30T02:21:18;24.50;1.00
12922;DHT22;6528;48.086;16.282;2024-01-30T02:23:49;24.50;1.00
12922;DHT22;6528;48.086;16.282;2024-01-30T02:26:17;24.50;1.00
12922;DHT22;6528;48.086;16.282;2024-01-30T02:28:45;24.50;1.00
12922;DHT22;6528;48.086;16.282;2024-01-30T02:31:12;24.50;1.00
12922;DHT22;6528;48.086;16.282;2024-01-30T02:33:39;24.50;1.00
12922;DHT22;6528;48.086;16.282;2024-01-30T02:36:07;24.50;1.00
12922;DHT22;6528;48.086;16.282;2024-01-30T02:38:34;24.50;1.00
12922;DHT22;6528;48.086;16.282;2024-01-30T02:41:02;24.50;1.00
12922;DHT22;6528;48.086;16.282;2024-01-30T02:43:29;24.60;1.00
12922;DHT22;6528;48.086;16.282;2024-01-30T02:45:56;24.60;1.00
12922;DHT22;6528;48.086;16.282;2024-01-30T02:48:25;24.50;1.00
12922;DHT22;6528;48.086;16.282;2024-01-30T02:50:52;24.50;1.00
12922;DHT22;6528;48.086;16.282;2024-01-30T02:53:19;24.50;1.00
12922;DHT22;6528;48.086;16.282;2024-01-30T02:55:47;24.60;1.00
12922;DHT22;6528;48.086;16.282;2024-01-30T02:58:14;24.50;1.00
12922;DHT22;6528;48.086;16.282;2024-01-30T03:00:42;24.60;1.00
12922;DHT22;6528;48.086;16.282;2024-01-30T03:03:09;24.50;1.00
12922;DHT22;6528;48.086;16.282;2024-01-30T03:05:36;24.60;1.00
12922;DHT22;6528;48.086;16.282;2024-01-30T03:08:04;24.60;1.00
12922;DHT22;6528;48.086;16.282;2024-01-30T03:10:32;24.50;1.00
12922;DHT22;6528;48.086;16.282;2024-01-30T03:12:59;24.60;1.00
12922;DHT22;6528;48.086;16.282;2024-01-30T03:15:27;24.60;1.00
12922;DHT22;6528;48.086;16.282;2024-01-30T03:17:54;24.60;1.00
12922;DHT22;6528;48.086;16.282;2024-01-30T03:20:22;24.60;1.00
12922;DHT22;6528;48.086;16.282;2024-01-30T03:22:49;24.60;1.00
12922;DHT22;6528;48.086;16.282;2024-01-30T03:25:16;24.60;1.00
12922;DHT22;6528;48.086;16.282;2024-01-30T03:27:44;24.60;1.00
12922;DHT22;6528;48.086;16.282;2024-01-30T03:30:11;24.60;1.00
12922;DHT22;6528;48.086;16.282;2024-01-30T03:32:39;24.60;1.00
12922;DHT22;6528;48.086;16.282;2024-01-30T03:35:06;24.60;1.00
12922;DHT22;6528;48.086;16.282;2024-01-30T03:37:34;24.60;1.00
12922;DHT22;6528;48.086;16.282;2024-01-30T03:40:02;24.60;1.00
12922;DHT22;6528;48.086;16.282;2024-01-30T03:42:30;24.60;1.00
12922;DHT22;6528;48.086;16.282;2024-01-30T03:44:57;24.60;1.00
12922;DHT22;6528;48.086;16.282;2024-01-30T03:47:25;24.60;1.00
12922;DHT22;6528;48.086;16.282;2024-01-30T03:49:52;24.60;1.00
12922;DHT22;6528;48.086;16.282;2024-01-30T03:52:20;24.60;1.00
12922;DHT22;6528;48.086;16.282;2024-01-30T03:54:47;24.60;1.00
12922;DHT22;6528;48.086;16.282;2024-01-30T03:57:15;24.60;1.00
12922;DHT22;6528;48.086;16.282;2024-01-30T03:59:45;24.60;1.00
12922;DHT22;6528;48.086;16.282;2024-01-30T04:02:12;24.60;1.00
12922;DHT22;6528;48.086;16.282;2024-01-30T04:04:39;24.60;1.00
12922;DHT22;6528;48.086;16.282;2024-01-30T04:07:07;24.60;1.00
12922;DHT22;6528;48.086;16.282;2024-01-30T04:09:34;24.60;1.00
12922;DHT22;6528;48.086;16.282;2024-01-30T04:12:02;24.60;1.00
12922;DHT22;6528;48.086;16.282;2024-01-30T04:14:29;24.60;1.00
12922;DHT22;6528;48.086;16.282;2024-01-30T04:16:57;24.60;1.00
12922;DHT22;6528;48.086;16.282;2024-01-30T04:19:24;24.60;1.00
12922;DHT22;6528;48.086;16.282;2024-01-30T04:21:52;24.60;1.00
12922;DHT22;6528;48.086;16.282;2024-01-30T04:24:19;24.60;1.00
12922;DHT22;6528;48.086;16.282;2024-01-30T04:26:46;24.60;1.00
12922;DHT22;6528;48.086;16.282;2024-01-30T04:29:14;24.60;1.00
12922;DHT22;6528;48.086;16.282;2024-01-30T04:31:41;24.60;1.00
12922;DHT22;6528;48.086;16.282;2024-01-30T04:34:08;24.60;1.00
12922;DHT22;6528;48.086;16.282;2024-01-30T04:36:36;24.60;1.00
12922;DHT22;6528;48.086;16.282;2024-01-30T04:39:03;24.60;1.00
12922;DHT22;6528;48.086;16.282;2024-01-30T04:41:31;24.60;1.00
12922;DHT22;6528;48.086;16.282;2024-01-30T04:43:58;24.60;1.00
12922;DHT22;6528;48.086;16.282;2024-01-30T04:46:25;24.60;1.00
12922;DHT22;6528;48.086;16.282;2024-01-30T04:48:53;24.60;1.00
12922;DHT22;6528;48.086;16.282;2024-01-30T04:51:20;24.60;1.00
12922;DHT22;6528;48.086;16.282;2024-01-30T04:53:48;24.60;1.00
12922;DHT22;6528;48.086;16.282;2024-01-30T04:56:15;24.60;1.00
12922;DHT22;6528;48.086;16.282;2024-01-30T04:58:42;24.60;1.00
12922;DHT22;6528;48.086;16.282;2024-01-30T05:01:10;24.60;1.00
12922;DHT22;6528;48.086;16.282;2024-01-30T05:03:41;24.60;1.00
12922;DHT22;6528;48.086;16.282;2024-01-30T05:06:09;24.60;1.00
12922;DHT22;6528;48.086;16.282;2024-01-30T05:08:36;24.60;1.00
12922;DHT22;6528;48.086;16.282;2024-01-30T05:11:05;24.60;1.00
12922;DHT22;6528;48.086;16.282;2024-01-30T05:13:32;24.60;1.00
12922;DHT22;6528;48.086;16.282;2024-01-30T05:16:02;24.60;1.00
12922;DHT22;6528;48.086;16.282;2024-01-30T05:18:30;24.60;1.00
12922;DHT22;6528;48.086;16.282;2024-01-30T05:20:57;24.60;1.00
12922;DHT22;6528;48.086;16.282;2024-01-30T05:23:25;24.60;1.00
12922;DHT22;6528;48.086;16.282;2024-01-30T05:25:52;24.60;1.00
12922;DHT22;6528;48.086;16.282;2024-01-30T05:28:20;24.60;1.00
12922;DHT22;6528;48.086;16.282;2024-01-30T05:30:47;24.60;1.00
12922;DHT22;6528;48.086;16.282;2024-01-30T05:33:15;24.60;1.00
12922;DHT22;6528;48.086;16.282;2024-01-30T05:35:42;24.60;1.00
12922;DHT22;6528;48.086;16.282;2024-01-30T05:38:11;24.60;1.00
12922;DHT22;6528;48.086;16.282;2024-01-30T05:40:39;24.60;1.00
12922;DHT22;6528;48.086;16.282;2024-01-30T05:43:07;24.60;1.00
12922;DHT22;6528;48.086;16.282;2024-01-30T05:45:34;24.60;1.00
12922;DHT22;6528;48.086;16.282;2024-01-30T05:48:03;24.60;1.00
12922;DHT22;6528;48.086;16.282;2024-01-30T05:50:31;24.60;1.00
12922;DHT22;6528;48.086;16.282;2024-01-30T05:52:58;24.60;1.00
12922;DHT22;6528;48.086;16.282;2024-01-30T05:55:25;24.60;1.00
12922;DHT22;6528;48.086;16.282;2024-01-30T05:57:52;24.60;1.00
12922;DHT22;6528;48.086;16.282;2024-01-30T06:00:19;24.60;1.00
12922;DHT22;6528;48.086;16.282;2024-01-30T06:02:46;24.60;1.00
12922;DHT22;6528;48.086;16.282;2024-01-30T06:05:14;24.60;1.00
12922;DHT22;6528;48.086;16.282;2024-01-30T06:07:41;24.60;1.00
12922;DHT22;6528;48.086;16.282;2024-01-30T06:10:09;24.60;1.00
12922;DHT22;6528;48.086;16.282;2024-01-30T06:12:37;24.60;1.00
12922;DHT22;6528;48.086;16.282;2024-01-30T06:15:05;24.60;1.00
12922;DHT22;6528;48.086;16.282;2024-01-30T06:17:33;24.60;1.00
12922;DHT22;6528;48.086;16.282;2024-01-30T06:20:01;24.60;1.00
12922;DHT22;6528;48.086;16.282;2024-01-30T06:22:28;24.60;1.00
12922;DHT22;6528;48.086;16.282;2024-01-30T06:24:55;24.60;1.00
12922;DHT22;6528;48.086;16.282;2024-01-30T06:27:23;24.60;1.00
12922;DHT22;6528;48.086;16.282;2024-01-30T06:29:50;24.60;1.00
12922;DHT22;6528;48.086;16.282;2024-01-30T06:32:17;24.70;1.00
12922;DHT22;6528;48.086;16.282;2024-01-30T06:34:44;24.70;1.00
12922;DHT22;6528;48.086;16.282;2024-01-30T06:37:12;24.70;1.00
12922;DHT22;6528;48.086;16.282;2024-01-30T06:39:40;24.80;1.00
12922;DHT22;6528;48.086;16.282;2024-01-30T06:42:07;24.80;1.00
12922;DHT22;6528;48.086;16.282;2024-01-30T06:44:34;24.80;1.00
12922;DHT22;6528;48.086;16.282;2024-01-30T06:47:02;24.80;1.00
12922;DHT22;6528;48.086;16.282;2024-01-30T06:49:29;24.90;1.00
12922;DHT22;6528;48.086;16.282;2024-01-30T06:51:57;24.80;1.00
12922;DHT22;6528;48.086;16.282;2024-01-30T06:54:23;24.80;1.00
12922;DHT22;6528;48.086;16.282;2024-01-30T06:56:50;24.90;1.00
12922;DHT22;6528;48.086;16.282;2024-01-30T06:59:18;24.90;1.00
12922;DHT22;6528;48.086;16.282;2024-01-30T07:01:45;25.00;1.00
12922;DHT22;6528;48.086;16.282;2024-01-30T07:04:13;25.00;1.00
12922;DHT22;6528;48.086;16.282;2024-01-30T07:06:40;24.90;1.00
12922;DHT22;6528;48.086;16.282;2024-01-30T07:09:08;25.00;1.00
12922;DHT22;6528;48.086;16.282;2024-01-30T07:11:35;25.00;1.00
12922;DHT22;6528;48.086;16.282;2024-01-30T07:14:03;25.00;1.00
12922;DHT22;6528;48.086;16.282;2024-01-30T07:16:33;25.00;1.00
12922;DHT22;6528;48.086;16.282;2024-01-30T07:19:00;25.00;1.00
12922;DHT22;6528;48.086;16.282;2024-01-30T07:21:28;25.10;1.00
12922;DHT22;6528;48.086;16.282;2024-01-30T07:23:55;25.10;1.00
12922;DHT22;6528;48.086;16.282;2024-01-30T07:26:23;25.10;1.00
12922;DHT22;6528;48.086;16.282;2024-01-30T07:28:50;25.10;1.00
12922;DHT22;6528;48.086;16.282;2024-01-30T07:31:18;25.10;1.00
12922;DHT22;6528;48.086;16.282;2024-01-30T07:33:47;25.10;1.00
12922;DHT22;6528;48.086;16.282;2024-01-30T07:36:15;25.10;1.00
12922;DHT22;6528;48.086;16.282;2024-01-30T07:38:42;25.10;1.00
12922;DHT22;6528;48.086;16.282;2024-01-30T07:41:10;25.10;1.00
12922;DHT22;6528;48.086;16.282;2024-01-30T07:43:38;25.10;1.00
12922;DHT22;6528;48.086;16.282;2024-01-30T07:46:06;25.20;1.00
12922;DHT22;6528;48.086;16.282;2024-01-30T07:48:33;25.10;1.00
12922;DHT22;6528;48.086;16.282;2024-01-30T07:51:01;25.20;1.00
12922;DHT22;6528;48.086;16.282;2024-01-30T07:53:30;25.20;1.00
12922;DHT22;6528;48.086;16.282;2024-01-30T07:55:58;25.20;1.00
12922;DHT22;6528;48.086;16.282;2024-01-30T07:58:25;25.20;1.00
12922;DHT22;6528;48.086;16.282;2024-01-30T08:00:54;25.20;1.00
12922;DHT22;6528;48.086;16.282;2024-01-30T08:03:25;25.20;1.00
12922;DHT22;6528;48.086;16.282;2024-01-30T08:05:52;25.20;1.00
12922;DHT22;6528;48.086;16.282;2024-01-30T08:08:20;25.20;1.00
12922;DHT22;6528;48.086;16.282;2024-01-30T08:10:47;25.30;1.00
12922;DHT22;6528;48.086;16.282;2024-01-30T08:13:16;25.30;1.00
12922;DHT22;6528;48.086;16.282;2024-01-30T08:15:43;25.30;1.00
12922;DHT22;6528;48.086;16.282;2024-01-30T08:18:10;25.30;1.00
12922;DHT22;6528;48.086;16.282;2024-01-30T08:20:38;25.30;1.00
12922;DHT22;6528;48.086;16.282;2024-01-30T08:23:05;25.30;1.00
12922;DHT22;6528;48.086;16.282;2024-01-30T08:25:33;25.30;1.00
12922;DHT22;6528;48.086;16.282;2024-01-30T08:28:00;25.40;1.00
12922;DHT22;6528;48.086;16.282;2024-01-30T08:30:28;25.40;1.00
12922;DHT22;6528;48.086;16.282;2024-01-30T08:32:55;25.40;1.00
12922;DHT22;6528;48.086;16.282;2024-01-30T08:35:23;25.40;1.00
12922;DHT22;6528;48.086;16.282;2024-01-30T08:37:50;25.50;1.00
12922;DHT22;6528;48.086;16.282;2024-01-30T08:40:18;25.50;1.00
12922;DHT22;6528;48.086;16.282;2024-01-30T08:42:45;25.50;1.00
12922;DHT22;6528;48.086;16.282;2024-01-30T08:45:13;25.60;1.00
12922;DHT22;6528;48.086;16.282;2024-01-30T08:47:40;25.60;1.00
12922;DHT22;6528;48.086;16.282;2024-01-30T08:50:08;25.60;1.00
12922;DHT22;6528;48.086;16.282;2024-01-30T08:52:36;25.60;1.00
12922;DHT22;6528;48.086;16.282;2024-01-30T08:55:04;25.60;1.00
12922;DHT22;6528;48.086;16.282;2024-01-30T08:57:31;25.60;1.00
12922;DHT22;6528;48.086;16.282;2024-01-30T08:59:59;25.70;1.00
12922;DHT22;6528;48.086;16.282;2024-01-30T09:02:27;25.70;1.00
12922;DHT22;6528;48.086;16.282;2024-01-30T09:04:55;25.70;1.00
12922;DHT22;6528;48.086;16.282;2024-01-30T09:07:22;25.70;1.00
12922;DHT22;6528;48.086;16.282;2024-01-30T09:09:50;25.80;1.00
12922;DHT22;6528;48.086;16.282;2024-01-30T09:12:17;25.80;1.00
12922;DHT22;6528;48.086;16.282;2024-01-30T09:14:44;25.80;1.00
12922;DHT22;6528;48.086;16.282;2024-01-30T09:17:12;25.80;1.00
12922;DHT22;6528;48.086;16.282;2024-01-30T09:19:40;25.90;1.00
12922;DHT22;6528;48.086;16.282;2024-01-30T09:22:08;25.90;1.00
12922;DHT22;6528;48.086;16.282;2024-01-30T09:24:35;25.90;1.00
12922;DHT22;6528;48.086;16.282;2024-01-30T09:27:03;26.00;1.00
12922;DHT22;6528;48.086;16.282;2024-01-30T09:29:30;26.00;1.00
12922;DHT22;6528;48.086;16.282;2024-01-30T09:31:58;26.00;1.00
12922;DHT22;6528;48.086;16.282;2024-01-30T09:34:26;26.00;1.00
12922;DHT22;6528;48.086;16.282;2024-01-30T09:36:53;26.00;1.00
12922;DHT22;6528;48.086;16.282;2024-01-30T09:39:20;26.10;1.00
12922;DHT22;6528;48.086;16.282;2024-01-30T09:44:44;26.10;1.00
12922;DHT22;6528;48.086;16.282;2024-01-30T09:47:15;26.10;1.00
12922;DHT22;6528;48.086;16.282;2024-01-30T09:49:44;26.10;1.00
12922;DHT22;6528;48.086;16.282;2024-01-30T09:52:11;26.20;1.00
12922;DHT22;6528;48.086;16.282;2024-01-30T09:54:40;26.20;1.00
12922;DHT22;6528;48.086;16.282;2024-01-30T09:57:08;26.20;1.00
12922;DHT22;6528;48.086;16.282;2024-01-30T09:59:36;26.30;1.00
12922;DHT22;6528;48.086;16.282;2024-01-30T10:02:04;26.30;1.00
12922;DHT22;6528;48.086;16.282;2024-01-30T10:04:31;26.30;1.00
12922;DHT22;6528;48.086;16.282;2024-01-30T10:07:02;26.30;1.00
12922;DHT22;6528;48.086;16.282;2024-01-30T10:09:33;26.30;1.00
12922;DHT22;6528;48.086;16.282;2024-01-30T10:12:02;26.40;1.00
12922;DHT22;6528;48.086;16.282;2024-01-30T10:14:30;26.40;1.00
12922;DHT22;6528;48.086;16.282;2024-01-30T10:16:58;26.40;1.00
12922;DHT22;6528;48.086;16.282;2024-01-30T10:19:25;26.40;1.00
12922;DHT22;6528;48.086;16.282;2024-01-30T10:21:54;26.40;1.00
12922;DHT22;6528;48.086;16.282;2024-01-30T10:24:24;26.40;1.00
12922;DHT22;6528;48.086;16.282;2024-01-30T10:26:53;26.40;1.00
12922;DHT22;6528;48.086;16.282;2024-01-30T10:29:20;26.40;1.00
12922;DHT22;6528;48.086;16.282;2024-01-30T10:32:03;26.40;1.00
12922;DHT22;6528;48.086;16.282;2024-01-30T10:34:31;26.40;1.00
12922;DHT22;6528;48.086;16.282;2024-01-30T10:37:09;26.40;1.00
12922;DHT22;6528;48.086;16.282;2024-01-30T10:39:45;26.40;1.00
12922;DHT22;6528;48.086;16.282;2024-01-30T10:42:17;26.50;1.00
12922;DHT22;6528;48.086;16.282;2024-01-30T10:47:21;26.50;1.00
12922;DHT22;6528;48.086;16.282;2024-01-30T10:49:49;26.50;1.00
12922;DHT22;6528;48.086;16.282;2024-01-30T10:52:18;26.50;1.00
12922;DHT22;6528;48.086;16.282;2024-01-30T10:54:47;26.50;1.00
12922;DHT22;6528;48.086;16.282;2024-01-30T10:57:17;26.50;1.00
12922;DHT22;6528;48.086;16.282;2024-01-30T10:59:45;26.50;1.00
12922;DHT22;6528;48.086;16.282;2024-01-30T11:02:14;26.50;1.00
12922;DHT22;6528;48.086;16.282;2024-01-30T11:04:42;26.50;1.00
12922;DHT22;6528;48.086;16.282;2024-01-30T11:12:25;26.50;1.00
12922;DHT22;6528;48.086;16.282;2024-01-30T11:20:29;26.50;1.00
12922;DHT22;6528;48.086;16.282;2024-01-30T11:23:00;26.40;1.00
12922;DHT22;6528;48.086;16.282;2024-01-30T11:25:33;26.50;1.00
12922;DHT22;6528;48.086;16.282;2024-01-30T11:28:00;26.50;1.00
12922;DHT22;6528;48.086;16.282;2024-01-30T11:30:30;26.40;1.00
12922;DHT22;6528;48.086;16.282;2024-01-30T11:33:14;26.40;1.00
12922;DHT22;6528;48.086;16.282;2024-01-30T11:35:43;26.50;1.00
12922;DHT22;6528;48.086;16.282;2024-01-30T11:38:14;26.50;1.00
12922;DHT22;6528;48.086;16.282;2024-01-30T11:40:42;26.40;1.00
12922;DHT22;6528;48.086;16.282;2024-01-30T11:43:11;26.50;1.00
12922;DHT22;6528;48.086;16.282;2024-01-30T11:45:39;26.40;1.00
12922;DHT22;6528;48.086;16.282;2024-01-30T11:48:08;26.40;1.00
12922;DHT22;6528;48.086;16.282;2024-01-30T11:50:39;26.50;1.00
12922;DHT22;6528;48.086;16.282;2024-01-30T11:53:06;26.40;1.00
12922;DHT22;6528;48.086;16.282;2024-01-30T11:55:34;26.40;1.00
12922;DHT22;6528;48.086;16.282;2024-01-30T11:58:04;26.40;1.00
12922;DHT22;6528;48.086;16.282;2024-01-30T12:00:31;26.40;1.00
12922;DHT22;6528;48.086;16.282;2024-01-30T12:03:01;26.40;1.00
12922;DHT22;6528;48.086;16.282;2024-01-30T12:05:30;26.40;1.00
12922;DHT22;6528;48.086;16.282;2024-01-30T12:07:58;26.40;1.00
12922;DHT22;6528;48.086;16.282;2024-01-30T12:10:28;26.40;1.00
12922;DHT22;6528;48.086;16.282;2024-01-30T12:12:56;26.40;1.00
12922;DHT22;6528;48.086;16.282;2024-01-30T12:15:25;26.40;1.00
12922;DHT22;6528;48.086;16.282;2024-01-30T12:18:03;26.40;1.00
12922;DHT22;6528;48.086;16.282;2024-01-30T12:20:30;26.40;1.00
12922;DHT22;6528;48.086;16.282;2024-01-30T12:22:57;26.40;1.00
12922;DHT22;6528;48.086;16.282;2024-01-30T12:25:24;26.40;1.00
12922;DHT22;6528;48.086;16.282;2024-01-30T12:27:52;26.40;1.00
12922;DHT22;6528;48.086;16.282;2024-01-30T12:30:20;26.40;1.00
12922;DHT22;6528;48.086;16.282;2024-01-30T12:32:52;26.40;1.00
12922;DHT22;6528;48.086;16.282;2024-01-30T12:35:20;26.40;1.00
12922;DHT22;6528;48.086;16.282;2024-01-30T12:37:49;26.30;1.00
12922;DHT22;6528;48.086;16.282;2024-01-30T12:40:17;26.40;1.00
12922;DHT22;6528;48.086;16.282;2024-01-30T12:42:49;26.30;1.00
12922;DHT22;6528;48.086;16.282;2024-01-30T12:45:17;26.40;1.00
12922;DHT22;6528;48.086;16.282;2024-01-30T12:47:50;26.40;1.00
12922;DHT22;6528;48.086;16.282;2024-01-30T12:50:17;26.40;1.00
12922;DHT22;6528;48.086;16.282;2024-01-30T12:52:45;26.30;1.00
12922;DHT22;6528;48.086;16.282;2024-01-30T12:55:16;26.30;1.00
12922;DHT22;6528;48.086;16.282;2024-01-30T12:57:45;26.30;1.00
12922;DHT22;6528;48.086;16.282;2024-01-30T13:00:13;26.40;1.00
12922;DHT22;6528;48.086;16.282;2024-01-30T13:02:41;26.30;1.00
12922;DHT22;6528;48.086;16.282;2024-01-30T13:05:10;26.30;1.00
12922;DHT22;6528;48.086;16.282;2024-01-30T13:07:37;26.30;1.00
12922;DHT22;6528;48.086;16.282;2024-01-30T13:10:05;26.30;1.00
12922;DHT22;6528;48.086;16.282;2024-01-30T13:12:33;26.30;1.00
12922;DHT22;6528;48.086;16.282;2024-01-30T13:15:01;26.30;1.00
12922;DHT22;6528;48.086;16.282;2024-01-30T13:17:28;26.30;1.00
12922;DHT22;6528;48.086;16.282;2024-01-30T13:19:56;26.20;1.00
12922;DHT22;6528;48.086;16.282;2024-01-30T13:22:36;26.20;1.00
12922;DHT22;6528;48.086;16.282;2024-01-30T13:25:06;26.20;1.00
12922;DHT22;6528;48.086;16.282;2024-01-30T13:27:37;26.20;1.00
12922;DHT22;6528;48.086;16.282;2024-01-30T13:30:07;26.20;1.00
12922;DHT22;6528;48.086;16.282;2024-01-30T13:32:37;26.20;1.00
12922;DHT22;6528;48.086;16.282;2024-01-30T13:35:05;26.10;1.00
12922;DHT22;6528;48.086;16.282;2024-01-30T13:37:33;26.10;1.00
12922;DHT22;6528;48.086;16.282;2024-01-30T13:40:00;26.20;1.00
12922;DHT22;6528;48.086;16.282;2024-01-30T13:42:31;26.10;1.00
12922;DHT22;6528;48.086;16.282;2024-01-30T13:44:58;26.10;1.00
12922;DHT22;6528;48.086;16.282;2024-01-30T13:47:26;26.10;1.00
12922;DHT22;6528;48.086;16.282;2024-01-30T13:49:53;26.10;1.00
12922;DHT22;6528;48.086;16.282;2024-01-30T13:52:21;26.10;1.00
12922;DHT22;6528;48.086;16.282;2024-01-30T13:54:54;26.10;1.00
12922;DHT22;6528;48.086;16.282;2024-01-30T13:57:21;26.10;1.00
12922;DHT22;6528;48.086;16.282;2024-01-30T13:59:49;26.00;1.00
12922;DHT22;6528;48.086;16.282;2024-01-30T14:02:16;26.00;1.00
12922;DHT22;6528;48.086;16.282;2024-01-30T14:04:43;26.00;1.00
12922;DHT22;6528;48.086;16.282;2024-01-30T14:07:11;26.00;1.00
12922;DHT22;6528;48.086;16.282;2024-01-30T14:09:39;26.00;1.00
12922;DHT22;6528;48.086;16.282;2024-01-30T14:12:06;26.00;1.00
12922;DHT22;6528;48.086;16.282;2024-01-30T14:14:34;26.00;1.00
12922;DHT22;6528;48.086;16.282;2024-01-30T14:17:03;26.00;1.00
12922;DHT22;6528;48.086;16.282;2024-01-30T14:19:36;25.90;1.00
12922;DHT22;6528;48.086;16.282;2024-01-30T14:22:03;26.00;1.00
12922;DHT22;6528;48.086;16.282;2024-01-30T14:24:31;26.00;1.00
12922;DHT22;6528;48.086;16.282;2024-01-30T14:26:58;25.90;1.00
12922;DHT22;6528;48.086;16.282;2024-01-30T14:29:26;25.90;1.00
12922;DHT22;6528;48.086;16.282;2024-01-30T14:31:54;25.90;1.00
12922;DHT22;6528;48.086;16.282;2024-01-30T14:34:22;25.90;1.00
12922;DHT22;6528;48.086;16.282;2024-01-30T14:36:49;25.90;1.00
12922;DHT22;6528;48.086;16.282;2024-01-30T14:39:17;25.90;1.00
12922;DHT22;6528;48.086;16.282;2024-01-30T14:41:45;25.80;1.00
12922;DHT22;6528;48.086;16.282;2024-01-30T14:44:12;25.80;1.00
12922;DHT22;6528;48.086;16.282;2024-01-30T14:46:41;25.80;1.00
12922;DHT22;6528;48.086;16.282;2024-01-30T14:49:09;25.80;1.00
12922;DHT22;6528;48.086;16.282;2024-01-30T14:51:37;25.80;1.00
12922;DHT22;6528;48.086;16.282;2024-01-30T14:54:05;25.80;1.00
12922;DHT22;6528;48.086;16.282;2024-01-30T14:56:32;25.80;1.00
12922;DHT22;6528;48.086;16.282;2024-01-30T14:59:00;25.80;1.00
12922;DHT22;6528;48.086;16.282;2024-01-30T15:01:28;25.80;1.00
12922;DHT22;6528;48.086;16.282;2024-01-30T15:03:55;25.80;1.00
12922;DHT22;6528;48.086;16.282;2024-01-30T15:06:23;25.80;1.00
12922;DHT22;6528;48.086;16.282;2024-01-30T15:08:52;25.70;1.00
12922;DHT22;6528;48.086;16.282;2024-01-30T15:11:20;25.70;1.00
12922;DHT22;6528;48.086;16.282;2024-01-30T15:13:47;25.70;1.00
12922;DHT22;6528;48.086;16.282;2024-01-30T15:16:15;25.70;1.00
12922;DHT22;6528;48.086;16.282;2024-01-30T15:18:42;25.70;1.00
12922;DHT22;6528;48.086;16.282;2024-01-30T15:21:10;25.70;1.00
12922;DHT22;6528;48.086;16.282;2024-01-30T15:23:37;25.60;1.00
12922;DHT22;6528;48.086;16.282;2024-01-30T15:26:05;25.70;1.00
12922;DHT22;6528;48.086;16.282;2024-01-30T15:28:36;25.70;1.00
12922;DHT22;6528;48.086;16.282;2024-01-30T15:31:06;25.60;1.00
12922;DHT22;6528;48.086;16.282;2024-01-30T15:33:34;25.70;1.00
12922;DHT22;6528;48.086;16.282;2024-01-30T15:36:02;25.60;1.00
12922;DHT22;6528;48.086;16.282;2024-01-30T15:38:29;25.60;1.00
12922;DHT22;6528;48.086;16.282;2024-01-30T15:40:57;25.60;1.00
12922;DHT22;6528;48.086;16.282;2024-01-30T15:43:24;25.60;1.00
12922;DHT22;6528;48.086;16.282;2024-01-30T15:45:52;25.60;1.00
12922;DHT22;6528;48.086;16.282;2024-01-30T15:48:19;25.60;1.00
12922;DHT22;6528;48.086;16.282;2024-01-30T15:50:47;25.60;1.00
12922;DHT22;6528;48.086;16.282;2024-01-30T15:53:14;25.60;1.00
12922;DHT22;6528;48.086;16.282;2024-01-30T15:55:42;25.60;1.00
12922;DHT22;6528;48.086;16.282;2024-01-30T15:58:09;25.60;1.00
12922;DHT22;6528;48.086;16.282;2024-01-30T16:00:37;25.60;1.00
12922;DHT22;6528;48.086;16.282;2024-01-30T16:03:05;25.60;1.00
12922;DHT22;6528;48.086;16.282;2024-01-30T16:05:32;25.60;1.00